Time;durP1;ratioP1;P1;durP2;ratioP2;P2;SDS_P1;SDS_P2;PMS_P1;PMS_P2;Temp;Humidity;BMP_temperature;BMP_pressure;BME280_temperature;BME280_humidity;BME280_pressure;Samples;Min_cycle;Max_cycle;Signal;HPM_P1;HPM_P2
2022/08/23 00:05:10;;;;;;;0.20;0.10;;;;;;;;;;6273588;22;20146;-82
2022/08/23 00:07:37;;;;;;;0.20;0.10;;;;;;;;;;6220138;22;20294;-82
2022/08/23 00:10:04;;;;;;;0.20;0.10;;;;;;;;;;6296498;22;20447;-82
2022/08/23 00:12:30;;;;;;;0.20;0.10;;;;;;;;;;6296567;22;20486;-82
2022/08/23 00:14:56;;;;;;;0.20;0.10;;;;;;;;;;6326465;22;20494;-82
2022/08/23 00:17:22;;;;;;;0.20;0.10;;;;;;;;;;6301664;22;20382;-83
2022/08/23 00:19:51;;;;;;;0.20;0.10;;;;;;;;;;6276422;22;20018;-83
2022/08/23 00:22:22;;;;;;;0.20;0.10;;;;;;;;;;6276186;22;20037;-82
2022/08/23 00:25:06;;;;;;;0.20;0.10;;;;;;;;;;6275460;22;20085;-82
2022/08/23 00:27:55;;;;;;;0.20;0.10;;;;;;;;;;6288201;22;20404;-83
2022/08/23 00:31:00;;;;;;;0.20;0.10;;;;;;;;;;6275729;22;20589;-84
2022/08/23 00:33:53;;;;;;;0.20;0.10;;;;;;;;;;6275978;22;20233;-83
2022/08/23 00:36:24;;;;;;;0.20;0.10;;;;;;;;;;6276752;22;20041;-83
2022/08/23 00:38:51;;;;;;;0.20;0.10;;;;;;;;;;6276044;22;20022;-82
2022/08/23 00:41:19;;;;;;;0.20;0.10;;;;;;;;;;6276804;22;20022;-83
2022/08/23 00:49:24;;;;;;;0.20;0.10;;;;;;;;;;6303458;22;20019;-83
2022/08/23 00:51:56;;;;;;;0.20;0.10;;;;;;;;;;6276747;22;20042;-82
2022/08/23 00:54:24;;;;;;;0.20;0.10;;;;;;;;;;6277134;22;20475;-82
2022/08/23 00:56:51;;;;;;;0.20;0.10;;;;;;;;;;6302997;22;20011;-83
2022/08/23 00:59:18;;;;;;;0.20;0.13;;;;;;;;;;6276240;22;20022;-82
2022/08/23 01:01:44;;;;;;;0.20;0.10;;;;;;;;;;6278109;22;20071;-83
2022/08/23 01:04:12;;;;;;;0.20;0.10;;;;;;;;;;6277606;22;20498;-82
2022/08/23 01:06:43;;;;;;;0.20;0.10;;;;;;;;;;6279372;22;20532;-82
2022/08/23 01:09:11;;;;;;;0.20;0.10;;;;;;;;;;6302645;22;20015;-83
2022/08/23 01:11:51;;;;;;;0.20;0.10;;;;;;;;;;6276998;22;20365;-83
2022/08/23 01:14:23;;;;;;;0.20;0.10;;;;;;;;;;6302680;22;20483;-83
2022/08/23 01:16:52;;;;;;;0.20;0.10;;;;;;;;;;6301841;22;20062;-83
2022/08/23 01:19:29;;;;;;;0.20;0.10;;;;;;;;;;6302654;22;20435;-82
2022/08/23 01:22:08;;;;;;;0.20;0.10;;;;;;;;;;6277574;22;20096;-83
2022/08/23 01:24:34;;;;;;;0.20;0.10;;;;;;;;;;6276950;22;20467;-83
2022/08/23 01:27:02;;;;;;;0.20;0.10;;;;;;;;;;6277906;22;20092;-82
2022/08/23 01:29:28;;;;;;;0.20;0.10;;;;;;;;;;6278170;22;20067;-82
2022/08/23 01:31:55;;;;;;;0.20;0.10;;;;;;;;;;6276325;22;20025;-83
2022/08/23 01:34:24;;;;;;;0.20;0.10;;;;;;;;;;6275929;22;20057;-81
2022/08/23 01:36:58;;;;;;;0.20;0.10;;;;;;;;;;6276457;22;20332;-83
2022/08/23 01:39:24;;;;;;;0.20;0.10;;;;;;;;;;6276754;22;20069;-82
2022/08/23 01:41:53;;;;;;;0.20;0.10;;;;;;;;;;6276964;22;20535;-82
2022/08/23 01:44:31;;;;;;;0.20;0.10;;;;;;;;;;6279191;22;20071;-82
2022/08/23 01:47:08;;;;;;;;;;;;;;;;;;;;;
2022/08/23 01:49:39;;;;;;;0.20;0.10;;;;;;;;;;6302695;22;20060;-83
2022/08/23 01:52:09;;;;;;;0.20;0.10;;;;;;;;;;6277624;22;20014;-83
2022/08/23 01:54:39;;;;;;;0.20;0.10;;;;;;;;;;6275828;22;20007;-82
2022/08/23 01:57:06;;;;;;;0.20;0.00;;;;;;;;;;6276127;22;20013;-83
2022/08/23 01:59:37;;;;;;;0.20;0.10;;;;;;;;;;6274363;22;20014;-83
2022/08/23 02:02:24;;;;;;;0.20;0.10;;;;;;;;;;6273886;22;20559;-83
2022/08/23 02:05:07;;;;;;;0.20;0.10;;;;;;;;;;6274714;22;20101;-83
2022/08/23 02:07:33;;;;;;;0.20;0.10;;;;;;;;;;6277078;22;20007;-83
2022/08/23 02:10:10;;;;;;;0.20;0.10;;;;;;;;;;6277852;22;20034;-83
2022/08/23 02:12:42;;;;;;;0.20;0.10;;;;;;;;;;6275795;22;20015;-83
2022/08/23 02:15:18;;;;;;;0.20;0.10;;;;;;;;;;6274774;22;20011;-84
2022/08/23 02:18:07;;;;;;;0.20;0.10;;;;;;;;;;6276865;22;20017;-83
2022/08/23 02:20:53;;;;;;;0.20;0.10;;;;;;;;;;6276728;22;20056;-84
2022/08/23 02:26:40;;;;;;;0.20;0.10;;;;;;;;;;6299656;22;20019;-83
2022/08/23 02:29:16;;;;;;;0.20;0.10;;;;;;;;;;6275879;22;20021;-83
2022/08/23 02:31:55;;;;;;;0.20;0.10;;;;;;;;;;6207999;23;20019;-83
2022/08/23 02:34:33;;;;;;;0.20;0.10;;;;;;;;;;6182939;23;20048;-84
2022/08/23 02:37:12;;;;;;;0.20;0.10;;;;;;;;;;6184140;23;20351;-83
2022/08/23 02:39:45;;;;;;;0.60;0.60;;;;;;;;;;6160160;23;20460;-83
2022/08/23 02:42:11;;;;;;;0.20;0.10;;;;;;;;;;6207992;23;20058;-83
2022/08/23 02:44:37;;;;;;;0.20;0.10;;;;;;;;;;6182850;23;20050;-83
2022/08/23 02:47:12;;;;;;;0.20;0.10;;;;;;;;;;6208442;23;20012;-83
2022/08/23 02:49:38;;;;;;;0.20;0.10;;;;;;;;;;6157723;23;20008;-83
2022/08/23 02:52:16;;;;;;;0.20;0.10;;;;;;;;;;6208013;23;20023;-84
2022/08/23 02:54:50;;;;;;;0.20;0.10;;;;;;;;;;6182273;23;20048;-83
2022/08/23 02:57:16;;;;;;;0.20;0.10;;;;;;;;;;6181962;23;20042;-83
2022/08/23 02:59:49;;;;;;;0.20;0.10;;;;;;;;;;6182982;23;20012;-83
2022/08/23 03:02:41;;;;;;;0.20;0.10;;;;;;;;;;6211827;22;20444;-83
2022/08/23 03:09:05;;;;;;;0.20;0.10;;;;;;;;;;6260222;22;20026;-83
2022/08/23 03:11:54;;;;;;;0.20;0.10;;;;;;;;;;6278100;22;20355;-83
2022/08/23 03:14:30;;;;;;;0.20;0.10;;;;;;;;;;6276689;22;20015;-84
2022/08/23 03:16:58;;;;;;;;;;;;;;;;;;6276840;22;20053;-83
2022/08/23 03:19:45;;;;;;;0.20;0.10;;;;;;;;;;6303396;22;19987;-83
2022/08/23 03:22:37;;;;;;;0.20;0.10;;;;;;;;;;6276666;22;20011;-82
2022/08/23 03:25:25;;;;;;;0.20;0.10;;;;;;;;;;6328630;22;20046;-84
2022/08/23 03:28:07;;;;;;;0.20;0.10;;;;;;;;;;6281134;22;20515;-82
2022/08/23 03:30:59;;;;;;;0.20;0.10;;;;;;;;;;6302111;22;20007;-83
2022/08/23 03:33:30;;;;;;;0.20;0.10;;;;;;;;;;6302521;22;20052;-83
2022/08/23 03:36:03;;;;;;;0.20;0.13;;;;;;;;;;6274362;22;20046;-83
2022/08/23 03:39:04;;;;;;;0.20;0.10;;;;;;;;;;6275583;22;20069;-83
2022/08/23 03:41:31;;;;;;;0.43;0.35;;;;;;;;;;6276271;22;20455;-84
2022/08/23 03:44:09;;;;;;;0.20;0.10;;;;;;;;;;6301016;22;20015;-83
2022/08/23 03:47:07;;;;;;;;;;;;;;;;;;;;;
2022/08/23 03:49:50;;;;;;;;;;;;;;;;;;;;;
2022/08/23 03:52:35;;;;;;;0.20;0.10;;;;;;;;;;6298412;22;20018;-83
2022/08/23 03:55:01;;;;;;;0.20;0.10;;;;;;;;;;6277696;22;20462;-83
2022/08/23 03:57:31;;;;;;;0.20;0.10;;;;;;;;;;6277965;22;20023;-83
2022/08/23 03:59:58;;;;;;;0.20;0.10;;;;;;;;;;6275555;22;20010;-83
2022/08/23 04:02:27;;;;;;;0.20;0.10;;;;;;;;;;6299164;22;20015;-83
2022/08/23 04:04:56;;;;;;;0.20;0.10;;;;;;;;;;6274170;22;20191;-83
2022/08/23 04:07:25;;;;;;;0.20;0.10;;;;;;;;;;6276090;22;20011;-83
2022/08/23 04:09:54;;;;;;;0.20;0.10;;;;;;;;;;6277507;22;20097;-82
2022/08/23 04:12:23;;;;;;;0.20;0.10;;;;;;;;;;6275284;22;20102;-82
2022/08/23 04:14:50;;;;;;;0.38;0.10;;;;;;;;;;6300736;22;20524;-83
2022/08/23 04:17:27;;;;;;;0.20;0.10;;;;;;;;;;6301820;22;20018;-86
2022/08/23 04:20:39;;;;;;;;;;;;;;;;;;;;;
2022/08/23 04:23:26;;;;;;;0.20;0.10;;;;;;;;;;6276781;22;20015;-83
2022/08/23 04:26:08;;;;;;;0.20;0.10;;;;;;;;;;6275177;22;20320;-83
2022/08/23 04:28:45;;;;;;;0.20;0.10;;;;;;;;;;6275144;22;20354;-84
2022/08/23 04:31:12;;;;;;;0.20;0.10;;;;;;;;;;6301010;22;20167;-83
2022/08/23 04:33:38;;;;;;;0.20;0.10;;;;;;;;;;6270153;22;20090;-84
2022/08/23 04:36:04;;;;;;;0.20;0.10;;;;;;;;;;6275737;22;20094;-83
2022/08/23 04:38:41;;;;;;;0.20;0.10;;;;;;;;;;6276409;22;20344;-83
2022/08/23 04:43:54;;;;;;;0.20;0.10;;;;;;;;;;6302200;22;20407;-83
2022/08/23 04:46:47;;;;;;;0.20;0.10;;;;;;;;;;6276665;22;20084;-83
2022/08/23 04:49:22;;;;;;;0.20;0.10;;;;;;;;;;6297051;22;20090;-83
2022/08/23 04:51:57;;;;;;;0.20;0.10;;;;;;;;;;6302180;22;20415;-83
2022/08/23 04:54:31;;;;;;;0.20;0.10;;;;;;;;;;6276861;22;20097;-83
2022/08/23 04:56:57;;;;;;;0.20;0.20;;;;;;;;;;6275971;22;20014;-83
2022/08/23 04:59:24;;;;;;;0.20;0.10;;;;;;;;;;6276364;22;20022;-83
2022/08/23 05:01:53;;;;;;;0.77;0.28;;;;;;;;;;6271886;22;20019;-83
2022/08/23 05:04:42;;;;;;;0.20;0.10;;;;;;;;;;6275329;22;20011;-84
2022/08/23 05:07:17;;;;;;;0.20;0.10;;;;;;;;;;6278284;22;20067;-83
2022/08/23 05:09:43;;;;;;;0.20;0.10;;;;;;;;;;6275929;22;20364;-83
2022/08/23 05:19:15;;;;;;;0.20;0.10;;;;;;;;;;6331841;22;20025;-84
2022/08/23 05:26:03;;;;;;;0.20;0.10;;;;;;;;;;6328623;22;20050;-85
2022/08/23 05:29:08;;;;;;;0.20;0.10;;;;;;;;;;6287150;22;20362;-85
2022/08/23 05:38:28;;;;;;;0.20;0.10;;;;;;;;;;6085870;23;20517;-84
2022/08/23 05:45:11;;;;;;;0.20;0.10;;;;;;;;;;6011524;23;20028;-83
2022/08/23 05:51:50;;;;;;;0.20;0.10;;;;;;;;;;6233329;23;20419;-85
2022/08/23 05:55:06;;;;;;;;;;;;;;;;;;;;;
2022/08/23 06:01:03;;;;;;;0.20;0.10;;;;;;;;;;6101452;23;20136;-86
2022/08/23 06:14:40;;;;;;;0.20;0.10;;;;;;;;;;6202670;23;20457;-84
2022/08/23 06:17:24;;;;;;;;;;;;;;;;;;6148213;23;20095;-86
2022/08/23 06:29:28;;;;;;;0.20;0.10;;;;;;;;;;6200488;23;20017;-86
2022/08/23 06:32:00;;;;;;;0.20;0.10;;;;;;;;;;6149309;22;20027;-85
2022/08/23 06:37:45;;;;;;;;;;;;;;;;;;;;;
2022/08/23 06:41:04;;;;;;;0.20;0.10;;;;;;;;;;6253719;22;20015;-86
2022/08/23 06:43:59;;;;;;;0.30;0.20;;;;;;;;;;6212445;23;20029;-84
2022/08/23 06:58:44;;;;;;;0.20;0.10;;;;;;;;;;6359511;22;20076;-86
2022/08/23 07:01:46;;;;;;;;;;;;;;;;;;;;;
2022/08/23 07:04:34;;;;;;;0.20;0.10;;;;;;;;;;6231356;23;20029;-86
2022/08/23 07:07:32;;;;;;;0.20;0.10;;;;;;;;;;6208038;23;20008;-87
2022/08/23 07:16:14;;;;;;;;;;;;;;;;;;;;;
2022/08/23 07:19:10;;;;;;;0.20;0.00;;;;;;;;;;6290621;22;21028;-89
2022/08/23 07:45:32;;;;;;;0.20;0.10;;;;;;;;;;5973828;23;20017;-89
2022/08/23 07:59:42;;;;;;;0.20;0.10;;;;;;;;;;6360038;22;20029;-89
2022/08/23 08:02:17;;;;;;;0.20;0.10;;;;;;;;;;6306116;22;20017;-87
2022/08/23 08:04:47;;;;;;;0.20;0.10;;;;;;;;;;6257121;22;20024;-87
2022/08/23 08:07:23;;;;;;;0.20;0.10;;;;;;;;;;6281323;22;20493;-86
2022/08/23 08:10:17;;;;;;;0.20;0.10;;;;;;;;;;6277237;22;20055;-86
2022/08/23 08:13:15;;;;;;;0.20;0.10;;;;;;;;;;6258570;22;20357;-86
2022/08/23 08:16:30;;;;;;;0.20;0.10;;;;;;;;;;6155829;23;20349;-88
2022/08/23 08:19:00;;;;;;;0.20;0.10;;;;;;;;;;6152844;23;20103;-87
2022/08/23 08:21:36;;;;;;;0.20;0.10;;;;;;;;;;6175363;23;20691;-86
2022/08/23 08:24:03;;;;;;;0.20;0.10;;;;;;;;;;6172873;23;20012;-86
2022/08/23 08:26:29;;;;;;;0.20;0.10;;;;;;;;;;6175032;23;20469;-87
2022/08/23 08:28:58;;;;;;;0.20;0.10;;;;;;;;;;6174129;22;20069;-86
2022/08/23 08:31:25;;;;;;;0.20;0.00;;;;;;;;;;6199205;23;20044;-86
2022/08/23 08:34:00;;;;;;;0.20;0.10;;;;;;;;;;6176904;22;20166;-86
2022/08/23 08:36:34;;;;;;;0.20;0.10;;;;;;;;;;6174966;23;20052;-86
2022/08/23 08:39:00;;;;;;;0.20;0.10;;;;;;;;;;6173283;23;20515;-89
2022/08/23 08:41:40;;;;;;;0.20;0.10;;;;;;;;;;6170847;23;20017;-89
2022/08/23 08:44:15;;;;;;;0.20;0.10;;;;;;;;;;6172606;23;20023;-88
2022/08/23 08:46:45;;;;;;;0.20;0.10;;;;;;;;;;6174063;23;20092;-88
2022/08/23 08:49:24;;;;;;;0.20;0.10;;;;;;;;;;6176281;23;20020;-87
2022/08/23 08:51:56;;;;;;;0.20;0.10;;;;;;;;;;6142659;23;20359;-88
2022/08/23 08:54:24;;;;;;;0.20;0.10;;;;;;;;;;6119398;23;20017;-87
2022/08/23 08:56:52;;;;;;;0.20;0.10;;;;;;;;;;6118880;23;20056;-87
2022/08/23 09:02:55;;;;;;;0.20;0.10;;;;;;;;;;6139787;23;20064;-88
2022/08/23 09:05:34;;;;;;;;;;;;;;;;;;6119448;23;20424;-87
2022/08/23 09:08:22;;;;;;;0.20;0.10;;;;;;;;;;6119024;23;19986;-86
2022/08/23 09:11:11;;;;;;;0.20;0.10;;;;;;;;;;6119292;23;20449;-86
2022/08/23 09:14:09;;;;;;;0.20;0.20;;;;;;;;;;6119035;22;20110;-88
2022/08/23 09:16:37;;;;;;;0.20;0.10;;;;;;;;;;6142516;23;20092;-87
2022/08/23 09:19:06;;;;;;;0.20;0.10;;;;;;;;;;6117800;23;20021;-87
2022/08/23 09:21:38;;;;;;;0.20;0.10;;;;;;;;;;6118064;23;20017;-87
2022/08/23 09:24:12;;;;;;;0.20;0.10;;;;;;;;;;6149843;22;20452;-88
2022/08/23 09:26:55;;;;;;;0.20;0.10;;;;;;;;;;6194796;23;20016;-86
2022/08/23 09:29:28;;;;;;;0.20;0.10;;;;;;;;;;6256716;22;20037;-87
2022/08/23 09:31:57;;;;;;;0.20;0.10;;;;;;;;;;6172964;23;20397;-87
2022/08/23 09:34:35;;;;;;;0.20;0.10;;;;;;;;;;6173976;23;20040;-89
2022/08/23 09:37:10;;;;;;;0.20;0.10;;;;;;;;;;6175205;23;20035;-88
2022/08/23 09:39:38;;;;;;;0.20;0.10;;;;;;;;;;6176743;23;20073;-86
2022/08/23 09:42:08;;;;;;;0.20;0.10;;;;;;;;;;6178731;23;20100;-86
2022/08/23 09:44:38;;;;;;;0.20;0.10;;;;;;;;;;6203182;23;20091;-88
2022/08/23 09:47:06;;;;;;;0.25;0.20;;;;;;;;;;6175592;23;20024;-86
2022/08/23 09:49:35;;;;;;;0.28;0.13;;;;;;;;;;6180228;22;20515;-88
2022/08/23 09:52:11;;;;;;;0.20;0.10;;;;;;;;;;6177098;23;20017;-87
2022/08/23 09:54:40;;;;;;;0.20;0.10;;;;;;;;;;6174210;23;20040;-87
2022/08/23 09:57:22;;;;;;;0.20;0.10;;;;;;;;;;6177342;23;20019;-88
2022/08/23 09:59:56;;;;;;;0.20;0.10;;;;;;;;;;6175532;23;20040;-87
2022/08/23 10:02:25;;;;;;;0.20;0.10;;;;;;;;;;6202600;23;20097;-87
2022/08/23 10:05:20;;;;;;;0.20;0.10;;;;;;;;;;6176781;23;20035;-90
2022/08/23 10:08:07;;;;;;;0.20;0.10;;;;;;;;;;6177776;23;20014;-87
2022/08/23 10:10:36;;;;;;;0.20;0.10;;;;;;;;;;6255426;22;20017;-85
2022/08/23 10:13:06;;;;;;;0.20;0.10;;;;;;;;;;6199048;23;20531;-87
2022/08/23 10:19:14;;;;;;;0.20;0.10;;;;;;;;;;6205795;22;20441;-86
2022/08/23 10:21:53;;;;;;;0.20;0.10;;;;;;;;;;6176963;23;20084;-86
2022/08/23 10:24:35;;;;;;;0.20;0.10;;;;;;;;;;6182663;23;20052;-89
2022/08/23 10:30:36;;;;;;;0.20;0.10;;;;;;;;;;6080820;23;20073;-89
2022/08/23 10:33:20;;;;;;;0.20;0.10;;;;;;;;;;6151304;22;20299;-91
2022/08/23 10:36:30;;;;;;;0.20;0.10;;;;;;;;;;6178818;23;20412;-91
2022/08/23 10:38:58;;;;;;;0.20;0.10;;;;;;;;;;6151927;22;20023;-86
2022/08/23 10:41:27;;;;;;;0.20;0.10;;;;;;;;;;6202174;23;20031;-86
2022/08/23 10:44:02;;;;;;;0.20;0.10;;;;;;;;;;6178301;23;20229;-90
2022/08/23 10:46:30;;;;;;;0.20;0.10;;;;;;;;;;6173074;23;20093;-87
2022/08/23 10:49:00;;;;;;;0.20;0.10;;;;;;;;;;6175218;23;20024;-89
2022/08/23 10:51:29;;;;;;;0.20;0.10;;;;;;;;;;6175731;23;20036;-87
2022/08/23 10:54:05;;;;;;;0.20;0.10;;;;;;;;;;6198748;23;20157;-88
2022/08/23 10:56:31;;;;;;;0.20;0.10;;;;;;;;;;6173571;23;20017;-86
2022/08/23 10:59:08;;;;;;;0.20;0.10;;;;;;;;;;6173876;23;20428;-88
2022/08/23 11:01:59;;;;;;;0.20;0.10;;;;;;;;;;6174641;23;20021;-90
2022/08/23 11:05:49;;;;;;;0.20;0.10;;;;;;;;;;6175520;23;20587;-91
2022/08/23 11:08:35;;;;;;;;;;;;;;;;;;;;;
2022/08/23 11:11:43;;;;;;;0.20;0.10;;;;;;;;;;6152042;22;20020;-91
2022/08/23 11:14:42;;;;;;;0.20;0.20;;;;;;;;;;6177304;23;20034;-88
2022/08/23 11:17:30;;;;;;;0.20;0.10;;;;;;;;;;6178081;23;20039;-90
2022/08/23 11:20:27;;;;;;;0.20;0.10;;;;;;;;;;6195596;22;20016;-90
2022/08/23 11:23:03;;;;;;;0.20;0.10;;;;;;;;;;6179957;23;20046;-91
2022/08/23 11:25:54;;;;;;;0.20;0.10;;;;;;;;;;6202631;23;20016;-90
2022/08/23 11:28:38;;;;;;;0.20;0.10;;;;;;;;;;6179575;23;20012;-89
2022/08/23 11:31:07;;;;;;;0.20;0.10;;;;;;;;;;6177778;23;20019;-86
2022/08/23 11:33:43;;;;;;;0.20;0.10;;;;;;;;;;6177989;23;20017;-90
2022/08/23 11:36:27;;;;;;;0.20;0.10;;;;;;;;;;6176570;23;20387;-91
2022/08/23 11:38:59;;;;;;;0.52;0.52;;;;;;;;;;6179079;23;20017;-90
2022/08/23 11:41:56;;;;;;;0.20;0.10;;;;;;;;;;6205468;23;20368;-88
2022/08/23 11:44:24;;;;;;;0.30;0.10;;;;;;;;;;6177184;23;20024;-88
2022/08/23 11:46:52;;;;;;;0.20;0.10;;;;;;;;;;6179255;23;20410;-88
2022/08/23 11:49:31;;;;;;;0.20;0.10;;;;;;;;;;6183299;23;20023;-88
2022/08/23 11:55:04;;;;;;;0.20;0.10;;;;;;;;;;6176509;23;20017;-88
2022/08/23 11:57:52;;;;;;;0.40;0.10;;;;;;;;;;6178642;23;20112;-91
2022/08/23 12:04:16;;;;;;;0.20;0.10;;;;;;;;;;6172516;23;20078;-91
2022/08/23 12:10:46;;;;;;;0.20;0.10;;;;;;;;;;6128187;23;20341;-87
2022/08/23 12:13:34;;;;;;;0.30;0.20;;;;;;;;;;6151374;22;20031;-90
2022/08/23 12:22:55;;;;;;;0.20;0.10;;;;;;;;;;6120036;23;20029;-90
2022/08/23 12:25:25;;;;;;;0.20;0.10;;;;;;;;;;6176325;22;20020;-87
2022/08/23 12:31:25;;;;;;;0.20;0.10;;;;;;;;;;6203842;23;20063;-87
2022/08/23 12:34:02;;;;;;;0.20;0.10;;;;;;;;;;6179853;23;20444;-87
2022/08/23 12:36:28;;;;;;;0.20;0.10;;;;;;;;;;6086414;22;20020;-86
2022/08/23 12:39:06;;;;;;;0.20;0.20;;;;;;;;;;6174418;23;20016;-86
2022/08/23 12:41:35;;;;;;;0.35;0.30;;;;;;;;;;6199558;22;20035;-81
2022/08/23 12:44:04;;;;;;;0.20;0.10;;;;;;;;;;6199658;22;20016;-82
2022/08/23 12:46:45;;;;;;;0.20;0.10;;;;;;;;;;6175820;22;20025;-87
2022/08/23 12:49:22;;;;;;;0.20;0.10;;;;;;;;;;6150892;23;20095;-85
2022/08/23 12:51:49;;;;;;;0.20;0.10;;;;;;;;;;6148489;23;20087;-84
2022/08/23 12:54:17;;;;;;;0.20;0.10;;;;;;;;;;6150326;23;20015;-83
2022/08/23 12:56:47;;;;;;;0.20;0.10;;;;;;;;;;6150361;23;20017;-85
2022/08/23 12:59:33;;;;;;;0.20;0.10;;;;;;;;;;6199226;23;20113;-86
2022/08/23 13:02:02;;;;;;;0.20;0.10;;;;;;;;;;6175827;23;20073;-87
2022/08/23 13:04:28;;;;;;;0.20;0.10;;;;;;;;;;6200433;23;20348;-87
2022/08/23 13:06:57;;;;;;;0.20;0.10;;;;;;;;;;6256014;22;20013;-85
2022/08/23 13:09:23;;;;;;;0.20;0.10;;;;;;;;;;6147808;23;20066;-86
2022/08/23 13:11:52;;;;;;;0.20;0.10;;;;;;;;;;6151531;23;20404;-84
2022/08/23 13:14:47;;;;;;;0.20;0.10;;;;;;;;;;6253814;22;20149;-82
2022/08/23 13:17:13;;;;;;;;;;;;;;;;;;6199946;23;20069;-85
2022/08/23 13:19:39;;;;;;;0.20;0.10;;;;;;;;;;6173183;23;19990;-85
2022/08/23 13:22:08;;;;;;;0.20;0.10;;;;;;;;;;6149705;23;20225;-84
2022/08/23 13:24:39;;;;;;;0.20;0.10;;;;;;;;;;6170639;23;20468;-84
2022/08/23 13:27:13;;;;;;;0.20;0.10;;;;;;;;;;6147103;23;20023;-86
2022/08/23 13:30:08;;;;;;;0.20;0.10;;;;;;;;;;6150270;23;20019;-85
2022/08/23 13:32:42;;;;;;;0.20;0.10;;;;;;;;;;6175084;23;20015;-82
2022/08/23 13:35:27;;;;;;;0.20;0.20;;;;;;;;;;6151947;23;20121;-84
2022/08/23 13:37:56;;;;;;;0.20;0.10;;;;;;;;;;6151042;22;20020;-85
2022/08/23 13:40:26;;;;;;;0.20;0.10;;;;;;;;;;6176335;23;20016;-87
2022/08/23 13:43:01;;;;;;;0.20;0.10;;;;;;;;;;6151672;23;20012;-86
2022/08/23 13:45:31;;;;;;;0.20;0.10;;;;;;;;;;6153066;23;20091;-88
2022/08/23 13:48:09;;;;;;;0.20;0.10;;;;;;;;;;6201418;23;20019;-87
2022/08/23 13:50:36;;;;;;;0.20;0.10;;;;;;;;;;6150648;23;20013;-84
2022/08/23 13:53:03;;;;;;;0.20;0.10;;;;;;;;;;6256029;22;20012;-85
2022/08/23 13:55:30;;;;;;;0.35;0.28;;;;;;;;;;6255222;22;20013;-85
2022/08/23 13:57:57;;;;;;;0.20;0.10;;;;;;;;;;6150359;23;20020;-85
2022/08/23 14:00:24;;;;;;;0.20;0.10;;;;;;;;;;6149208;23;20019;-86
2022/08/23 14:02:50;;;;;;;0.20;0.10;;;;;;;;;;6172857;23;20020;-85
2022/08/23 14:05:18;;;;;;;0.20;0.20;;;;;;;;;;6199632;23;20017;-85
2022/08/23 14:07:46;;;;;;;0.20;0.10;;;;;;;;;;6199069;23;20020;-86
2022/08/23 14:10:12;;;;;;;0.20;0.10;;;;;;;;;;6150370;23;20453;-88
2022/08/23 14:12:38;;;;;;;0.20;0.10;;;;;;;;;;6149855;23;20096;-84
2022/08/23 14:15:06;;;;;;;0.20;0.10;;;;;;;;;;6257720;22;20016;-88
2022/08/23 14:17:34;;;;;;;0.20;0.10;;;;;;;;;;6174645;23;20035;-85
2022/08/23 14:20:03;;;;;;;0.20;0.10;;;;;;;;;;6148891;23;20012;-83
2022/08/23 14:22:29;;;;;;;0.20;0.10;;;;;;;;;;6148270;23;20024;-84
2022/08/23 14:24:55;;;;;;;0.20;0.20;;;;;;;;;;6200042;23;20016;-87
2022/08/23 14:27:21;;;;;;;0.20;0.10;;;;;;;;;;6199222;23;20017;-86
2022/08/23 14:29:47;;;;;;;0.20;0.10;;;;;;;;;;6150649;23;20024;-83
2022/08/23 14:32:18;;;;;;;0.20;0.10;;;;;;;;;;6152762;23;20070;-84
2022/08/23 14:34:44;;;;;;;0.20;0.10;;;;;;;;;;6258505;22;20013;-84
2022/08/23 14:37:14;;;;;;;0.20;0.10;;;;;;;;;;6256312;22;20146;-86
2022/08/23 14:39:43;;;;;;;0.20;0.20;;;;;;;;;;6153342;23;20052;-90
2022/08/23 14:42:19;;;;;;;0.20;0.15;;;;;;;;;;6154179;23;20095;-84
2022/08/23 14:44:45;;;;;;;0.20;0.10;;;;;;;;;;6204344;23;20063;-85
2022/08/23 14:47:11;;;;;;;0.20;0.10;;;;;;;;;;6257750;22;20055;-86
2022/08/23 14:49:37;;;;;;;0.20;0.10;;;;;;;;;;6254997;22;20017;-84
2022/08/23 14:52:03;;;;;;;0.47;0.25;;;;;;;;;;6150799;23;20448;-84
2022/08/23 14:54:30;;;;;;;0.20;0.10;;;;;;;;;;6202138;23;20017;-86
2022/08/23 14:56:56;;;;;;;1.20;0.63;;;;;;;;;;6254826;22;20048;-86
2022/08/23 14:59:22;;;;;;;0.20;0.10;;;;;;;;;;6151554;23;20027;-85
2022/08/23 15:01:49;;;;;;;0.20;0.17;;;;;;;;;;6153567;23;20071;-87
2022/08/23 15:04:17;;;;;;;0.20;0.10;;;;;;;;;;6202522;23;20494;-88
2022/08/23 15:06:43;;;;;;;0.20;0.10;;;;;;;;;;6151149;23;20013;-87
2022/08/23 15:09:10;;;;;;;0.20;0.10;;;;;;;;;;6151233;23;20016;-87
2022/08/23 15:11:36;;;;;;;0.20;0.10;;;;;;;;;;6153229;23;20009;-87
2022/08/23 15:14:02;;;;;;;0.20;0.10;;;;;;;;;;6257318;22;20016;-86
2022/08/23 15:16:28;;;;;;;0.20;0.10;;;;;;;;;;6155238;22;20035;-88
2022/08/23 15:18:55;;;;;;;0.20;0.10;;;;;;;;;;6256592;22;20028;-87
2022/08/23 15:21:21;;;;;;;0.20;0.10;;;;;;;;;;6153742;23;20538;-85
2022/08/23 15:23:47;;;;;;;0.20;0.10;;;;;;;;;;6153341;23;20021;-86
2022/08/23 15:26:15;;;;;;;0.20;0.10;;;;;;;;;;6201116;23;20441;-86
2022/08/23 15:28:41;;;;;;;0.30;0.20;;;;;;;;;;6152277;23;20016;-85
2022/08/23 15:31:10;;;;;;;0.20;0.10;;;;;;;;;;6151139;23;20016;-85
2022/08/23 15:33:36;;;;;;;0.20;0.10;;;;;;;;;;6258323;22;20028;-85
2022/08/23 15:36:03;;;;;;;0.20;0.10;;;;;;;;;;6201463;22;20013;-85
2022/08/23 15:38:30;;;;;;;0.20;0.10;;;;;;;;;;6258549;22;20024;-85
2022/08/23 15:40:56;;;;;;;0.20;0.20;;;;;;;;;;6152092;22;20059;-87
2022/08/23 15:43:23;;;;;;;0.20;0.10;;;;;;;;;;6199832;23;20019;-84
2022/08/23 15:45:49;;;;;;;0.20;0.10;;;;;;;;;;6255183;22;20027;-85
2022/08/23 15:48:19;;;;;;;0.20;0.10;;;;;;;;;;6259216;22;20016;-85
2022/08/23 15:50:46;;;;;;;0.20;0.10;;;;;;;;;;6153927;23;20403;-85
2022/08/23 15:53:13;;;;;;;0.20;0.17;;;;;;;;;;6153420;23;20016;-86
2022/08/23 15:55:40;;;;;;;0.22;0.20;;;;;;;;;;6154632;22;20017;-84
2022/08/23 15:58:07;;;;;;;0.20;0.10;;;;;;;;;;6153672;23;20369;-85
2022/08/23 16:00:33;;;;;;;0.20;0.10;;;;;;;;;;6152833;23;20114;-86
2022/08/23 16:02:59;;;;;;;0.20;0.20;;;;;;;;;;6258557;22;20012;-85
2022/08/23 16:05:25;;;;;;;0.30;0.15;;;;;;;;;;6153945;23;20016;-85
2022/08/23 16:07:53;;;;;;;0.20;0.20;;;;;;;;;;6153988;22;20020;-87
2022/08/23 16:10:19;;;;;;;0.20;0.20;;;;;;;;;;6154812;23;20070;-82
2022/08/23 16:12:45;;;;;;;0.20;0.10;;;;;;;;;;6153449;23;20017;-85
2022/08/23 16:15:11;;;;;;;0.20;0.10;;;;;;;;;;6259427;22;20024;-85
2022/08/23 16:17:38;;;;;;;0.20;0.10;;;;;;;;;;6203544;23;20028;-85
2022/08/23 16:20:05;;;;;;;0.20;0.10;;;;;;;;;;6154113;23;20020;-85
2022/08/23 16:22:31;;;;;;;0.20;0.10;;;;;;;;;;6153606;23;20012;-84
2022/08/23 16:24:58;;;;;;;0.20;0.10;;;;;;;;;;6204676;23;20066;-84
2022/08/23 16:27:25;;;;;;;0.20;0.10;;;;;;;;;;6177638;23;20419;-85
2022/08/23 16:29:51;;;;;;;0.22;0.15;;;;;;;;;;6155133;23;20353;-84
2022/08/23 16:32:17;;;;;;;0.25;0.25;;;;;;;;;;6155688;23;20017;-86
2022/08/23 16:34:43;;;;;;;0.20;0.10;;;;;;;;;;6257399;22;20326;-85
2022/08/23 16:37:09;;;;;;;0.20;0.10;;;;;;;;;;6177760;22;20027;-86
2022/08/23 16:39:36;;;;;;;0.20;0.10;;;;;;;;;;6201920;23;20019;-85
2022/08/23 16:42:03;;;;;;;0.20;0.10;;;;;;;;;;6257475;22;20137;-85
2022/08/23 16:44:29;;;;;;;0.20;0.10;;;;;;;;;;6204378;23;20019;-82
2022/08/23 16:46:56;;;;;;;0.20;0.10;;;;;;;;;;6256100;22;20016;-85
2022/08/23 16:49:22;;;;;;;0.20;0.10;;;;;;;;;;6150391;23;20013;-85
2022/08/23 16:51:48;;;;;;;0.20;0.10;;;;;;;;;;6200234;23;20048;-85
2022/08/23 16:54:14;;;;;;;0.20;0.10;;;;;;;;;;6256374;22;20013;-86
2022/08/23 16:56:41;;;;;;;0.20;0.10;;;;;;;;;;6256264;22;20083;-86
2022/08/23 16:59:08;;;;;;;0.20;0.10;;;;;;;;;;6201318;23;20025;-86
2022/08/23 17:01:46;;;;;;;0.20;0.10;;;;;;;;;;6201811;23;20349;-85
2022/08/23 17:04:12;;;;;;;0.20;0.10;;;;;;;;;;6201821;23;20024;-85
2022/08/23 17:06:39;;;;;;;0.20;0.10;;;;;;;;;;6203514;23;20016;-86
2022/08/23 17:09:05;;;;;;;0.20;0.10;;;;;;;;;;6201401;23;20503;-84
2022/08/23 17:11:31;;;;;;;0.20;0.10;;;;;;;;;;6202104;23;20515;-86
2022/08/23 17:13:57;;;;;;;0.20;0.10;;;;;;;;;;6152955;23;20024;-85
2022/08/23 17:16:23;;;;;;;0.20;0.10;;;;;;;;;;6202214;23;20093;-86
2022/08/23 17:18:55;;;;;;;0.20;0.10;;;;;;;;;;6256915;22;20091;-86
2022/08/23 17:21:22;;;;;;;;;;;;;;;;;;6151560;23;20016;-87
2022/08/23 17:23:48;;;;;;;0.20;0.10;;;;;;;;;;6177700;22;19916;-87
2022/08/23 17:26:14;;;;;;;0.20;0.20;;;;;;;;;;6151340;23;20043;-87
2022/08/23 17:28:41;;;;;;;0.20;0.10;;;;;;;;;;6151338;23;20091;-85
2022/08/23 17:31:08;;;;;;;0.20;0.10;;;;;;;;;;6153122;23;20459;-87
2022/08/23 17:33:34;;;;;;;0.20;0.10;;;;;;;;;;6203345;23;20017;-85
2022/08/23 17:36:00;;;;;;;0.20;0.10;;;;;;;;;;6256113;22;20013;-86
2022/08/23 17:38:27;;;;;;;0.20;0.20;;;;;;;;;;6152288;23;20027;-87
2022/08/23 17:40:53;;;;;;;0.20;0.10;;;;;;;;;;6152558;23;20016;-88
2022/08/23 17:43:20;;;;;;;0.20;0.10;;;;;;;;;;6152687;23;20416;-88
2022/08/23 17:45:47;;;;;;;0.20;0.10;;;;;;;;;;6256963;22;20348;-87
2022/08/23 17:48:14;;;;;;;0.20;0.10;;;;;;;;;;6152712;23;20027;-87
2022/08/23 17:50:42;;;;;;;0.20;0.10;;;;;;;;;;6256152;22;20019;-88
2022/08/23 17:53:09;;;;;;;0.20;0.10;;;;;;;;;;6151931;23;20547;-87
2022/08/23 17:55:35;;;;;;;0.20;0.20;;;;;;;;;;6151698;23;20019;-88
2022/08/23 17:58:02;;;;;;;0.20;0.10;;;;;;;;;;6151210;23;20016;-88
2022/08/23 18:00:31;;;;;;;0.20;0.10;;;;;;;;;;6149138;23;20069;-87
2022/08/23 18:02:57;;;;;;;0.20;0.10;;;;;;;;;;6148304;23;20020;-87
2022/08/23 18:05:24;;;;;;;0.20;0.10;;;;;;;;;;6148993;23;20024;-88
2022/08/23 18:07:50;;;;;;;0.20;0.10;;;;;;;;;;6150212;23;20009;-88
2022/08/23 18:10:16;;;;;;;0.20;0.10;;;;;;;;;;6151604;23;20013;-87